createdAt,value
2018-07-24T00:01:21.355Z,101351.83
2018-07-24T00:03:49.728Z,101350.41
2018-07-24T00:06:18.105Z,101342.70
2018-07-24T00:08:46.927Z,101349.59
2018-07-24T00:11:15.310Z,101346.23
2018-07-24T00:13:43.681Z,101347.98
2018-07-24T00:16:12.063Z,101345.95
2018-07-24T00:18:40.437Z,101350.28
2018-07-24T00:21:08.805Z,101349.63
2018-07-24T00:23:37.170Z,101346.81
2018-07-24T00:26:05.537Z,101349.69
2018-07-24T00:28:33.903Z,101356.36
2018-07-24T00:31:02.276Z,101353.71
2018-07-24T00:33:30.657Z,101349.89
2018-07-24T00:35:59.031Z,101344.02
2018-07-24T00:38:27.397Z,101351.63
2018-07-24T00:40:55.817Z,101346.24
2018-07-24T00:43:24.553Z,101345.61
2018-07-24T00:45:52.920Z,101346.05
2018-07-24T00:48:21.292Z,101348.86
2018-07-24T00:50:49.662Z,101343.19
2018-07-24T00:53:18.398Z,101337.66
2018-07-24T00:55:47.303Z,101338.78
2018-07-24T00:58:15.680Z,101337.59
2018-07-24T01:00:44.069Z,101341.08
2018-07-24T01:03:12.444Z,101342.58
2018-07-24T01:05:40.805Z,101337.66
2018-07-24T01:08:09.173Z,101336.70
2018-07-24T01:10:37.565Z,101336.19
2018-07-24T01:13:05.937Z,101331.70
2018-07-24T01:15:34.314Z,101332.39
2018-07-24T01:18:02.682Z,101328.01
2018-07-24T01:20:31.059Z,101327.89
2018-07-24T01:22:59.430Z,101331.95
2018-07-24T01:25:27.795Z,101328.80
2018-07-24T01:27:56.177Z,101326.78
2018-07-24T01:30:24.545Z,101325.39
2018-07-24T01:32:52.927Z,101324.97
2018-07-24T01:35:21.304Z,101321.48
2018-07-24T01:37:49.691Z,101326.14
2018-07-24T01:40:18.062Z,101324.14
2018-07-24T01:42:46.482Z,101324.92
2018-07-24T01:45:14.866Z,101327.84
2018-07-24T01:47:43.243Z,101326.70
2018-07-24T01:50:11.623Z,101326.91
2018-07-24T01:52:39.999Z,101325.68
2018-07-24T01:55:09.714Z,101326.64
2018-07-24T01:57:40.006Z,101328.70
2018-07-24T02:00:10.680Z,101327.40
2018-07-24T02:02:39.635Z,101331.41
2018-07-24T02:05:06.901Z,101326.98
2018-07-24T02:07:35.256Z,101327.91
2018-07-24T02:10:03.640Z,101324.20
2018-07-24T02:12:32.015Z,101323.92
2018-07-24T02:15:00.393Z,101328.33
2018-07-24T02:17:28.766Z,101329.88
2018-07-24T02:19:57.132Z,101330.34
2018-07-24T02:22:25.527Z,101328.77
2018-07-24T02:24:53.895Z,101328.94
2018-07-24T02:27:22.267Z,101330.60
2018-07-24T02:29:50.640Z,101328.77
2018-07-24T02:32:19.017Z,101325.47
2018-07-24T02:34:47.389Z,101324.79
2018-07-24T02:37:15.784Z,101327.91
2018-07-24T02:39:44.467Z,101327.44
2018-07-24T02:42:12.848Z,101338.48
2018-07-24T02:44:41.251Z,101338.23
2018-07-24T02:47:09.623Z,101336.80
2018-07-24T02:49:37.994Z,101342.48
2018-07-24T02:52:06.366Z,101345.59
2018-07-24T02:54:34.742Z,101349.48
2018-07-24T02:57:03.409Z,101348.33
2018-07-24T02:59:31.791Z,101347.72
2018-07-24T03:02:00.181Z,101350.95
2018-07-24T03:04:28.547Z,101349.75
2018-07-24T03:06:56.920Z,101348.41
2018-07-24T03:09:25.298Z,101348.09
2018-07-24T03:11:53.689Z,101345.73
2018-07-24T03:14:22.060Z,101345.02
2018-07-24T03:16:50.465Z,101346.94
2018-07-24T03:19:18.829Z,101340.57
2018-07-24T03:21:48.167Z,101334.47
2018-07-24T03:24:16.774Z,101338.00
2018-07-24T03:26:44.940Z,101341.50
2018-07-24T03:29:13.322Z,101349.67
2018-07-24T03:31:41.691Z,101352.04
2018-07-24T03:34:10.071Z,101354.92
2018-07-24T03:36:38.444Z,101357.55
2018-07-24T03:39:06.877Z,101357.02
2018-07-24T03:41:35.467Z,101358.10
2018-07-24T03:44:03.852Z,101366.15
2018-07-24T03:46:32.296Z,101357.06
2018-07-24T03:49:00.673Z,101364.03
2018-07-24T03:51:35.787Z,101362.09
2018-07-24T03:54:10.262Z,101351.87
2018-07-24T03:56:38.691Z,101366.41
2018-07-24T03:59:07.058Z,101364.28
2018-07-24T04:01:35.430Z,101361.02
2018-07-24T04:04:03.813Z,101356.70
2018-07-24T04:06:32.200Z,101356.53
2018-07-24T04:09:00.580Z,101355.00
2018-07-24T04:11:29.175Z,101353.25
2018-07-24T04:13:57.316Z,101357.46
2018-07-24T04:16:25.701Z,101348.17
2018-07-24T04:18:54.309Z,101352.84
2018-07-24T04:21:22.469Z,101358.70
2018-07-24T04:23:51.765Z,101351.48
2018-07-24T04:29:19.269Z,101355.97
2018-07-24T04:31:47.646Z,101354.83
2018-07-24T04:34:16.023Z,101353.05
2018-07-24T04:36:45.319Z,101356.30
2018-07-24T04:39:13.709Z,101356.75
2018-07-24T04:41:42.103Z,101365.37
2018-07-24T04:44:10.477Z,101360.96
2018-07-24T04:46:38.886Z,101357.77
2018-07-24T04:49:07.257Z,101356.87
2018-07-24T04:51:35.636Z,101355.13
2018-07-24T04:54:04.025Z,101349.09
2018-07-24T04:56:32.387Z,101352.16
2018-07-24T04:59:00.780Z,101349.20
2018-07-24T05:01:29.157Z,101352.59
2018-07-24T05:03:57.535Z,101353.81
2018-07-24T05:06:25.923Z,101354.48
2018-07-24T05:08:54.286Z,101351.67
2018-07-24T05:11:22.661Z,101350.34
2018-07-24T05:13:51.041Z,101350.88
2018-07-24T05:16:19.414Z,101354.16
2018-07-24T05:18:47.799Z,101351.20
2018-07-24T05:21:16.177Z,101350.98
2018-07-24T05:23:44.551Z,101348.22
2018-07-24T05:26:12.945Z,101352.06
2018-07-24T05:28:41.326Z,101348.20
2018-07-24T05:31:19.978Z,101350.93
2018-07-24T05:33:48.377Z,101351.33
2018-07-24T05:36:16.759Z,101351.77
2018-07-24T05:38:45.188Z,101351.45
2018-07-24T05:41:13.520Z,101353.13
2018-07-24T05:43:41.894Z,101356.70
2018-07-24T05:49:08.986Z,101353.47
2018-07-24T05:51:37.351Z,101351.02
2018-07-24T05:54:19.867Z,101356.41
2018-07-24T05:56:48.975Z,101358.19
2018-07-24T05:59:17.365Z,101359.19
2018-07-24T06:01:45.770Z,101363.72
2018-07-24T06:04:14.135Z,101356.39
2018-07-24T06:06:42.512Z,101352.44
2018-07-24T06:09:10.878Z,101356.30
2018-07-24T06:11:39.240Z,101354.75
2018-07-24T06:14:07.633Z,101355.15
2018-07-24T06:16:36.040Z,101356.86
2018-07-24T06:19:04.374Z,101359.19
2018-07-24T06:21:32.736Z,101355.27
2018-07-24T06:24:01.098Z,101356.20
2018-07-24T06:26:29.467Z,101361.48
2018-07-24T06:28:58.433Z,101354.61
2018-07-24T06:31:26.579Z,101359.00
2018-07-24T06:33:54.947Z,101352.17
2018-07-24T06:36:23.323Z,101354.08
2018-07-24T06:38:51.689Z,101350.20
2018-07-24T06:41:20.053Z,101351.60
2018-07-24T06:43:55.100Z,101346.01
2018-07-24T06:46:23.243Z,101351.80
2018-07-24T06:48:51.611Z,101355.66
2018-07-24T06:51:20.102Z,101358.64
2018-07-24T06:53:48.396Z,101357.12
2018-07-24T06:56:16.765Z,101360.44
2018-07-24T06:58:45.144Z,101357.87
2018-07-24T07:01:13.502Z,101356.02
2018-07-24T07:03:41.873Z,101361.35
2018-07-24T07:06:10.254Z,101358.13
2018-07-24T07:09:11.434Z,101360.56
2018-07-24T07:11:13.530Z,101361.59
2018-07-24T07:13:41.939Z,101360.94
2018-07-24T07:16:10.597Z,101359.42
2018-07-24T07:18:38.949Z,101361.70
2018-07-24T07:21:07.320Z,101358.16
2018-07-24T07:23:35.717Z,101354.03
2018-07-24T07:26:04.100Z,101358.72
2018-07-24T07:28:32.460Z,101349.58
2018-07-24T07:31:00.908Z,101355.75
2018-07-24T07:33:29.267Z,101350.94
2018-07-24T07:35:57.652Z,101346.82
2018-07-24T07:38:26.026Z,101345.06
2018-07-24T07:40:54.626Z,101343.31
2018-07-24T07:43:22.764Z,101337.91
2018-07-24T07:45:51.137Z,101336.49
2018-07-24T07:48:19.514Z,101339.20
2018-07-24T07:50:47.912Z,101336.36
2018-07-24T07:53:16.236Z,101341.95
2018-07-24T07:55:44.601Z,101344.61
2018-07-24T07:58:12.978Z,101347.89
2018-07-24T08:00:41.596Z,101345.99
2018-07-24T08:03:10.901Z,101339.17
2018-07-24T08:05:39.238Z,101347.97
2018-07-24T08:08:07.602Z,101344.81
2018-07-24T08:10:35.970Z,101344.58
2018-07-24T08:13:04.333Z,101344.06
2018-07-24T08:15:32.703Z,101346.61
2018-07-24T08:18:01.066Z,101345.34
2018-07-24T08:20:29.439Z,101342.44
2018-07-24T08:22:57.802Z,101342.41
2018-07-24T08:25:27.072Z,101336.81
2018-07-24T08:27:55.814Z,101339.36
2018-07-24T08:30:23.792Z,101331.92
2018-07-24T08:32:52.152Z,101334.95
2018-07-24T08:35:20.522Z,101333.34
2018-07-24T08:37:49.821Z,101333.95
2018-07-24T08:40:18.223Z,101330.69
2018-07-24T08:42:47.199Z,101329.20
2018-07-24T08:45:16.674Z,101332.31
2018-07-24T08:47:45.012Z,101336.28
2018-07-24T08:50:13.646Z,101334.11
2018-07-24T08:52:42.329Z,101326.13
2018-07-24T08:55:11.016Z,101329.98
2018-07-24T08:57:39.105Z,101337.83
2018-07-24T09:00:07.464Z,101335.10
2018-07-24T09:02:36.350Z,101331.39
2018-07-24T09:05:04.804Z,101330.69
2018-07-24T09:07:33.162Z,101336.23
2018-07-24T09:10:01.544Z,101342.53
2018-07-24T09:12:30.199Z,101337.05
2018-07-24T09:14:58.564Z,101327.72
2018-07-24T09:17:27.518Z,101326.88
2018-07-24T09:19:55.901Z,101331.50
2018-07-24T09:22:24.316Z,101333.17
2018-07-24T09:24:52.697Z,101333.56
2018-07-24T09:27:21.064Z,101334.03
2018-07-24T09:29:49.480Z,101333.56
2018-07-24T09:32:17.829Z,101329.71
2018-07-24T09:34:46.193Z,101330.56
2018-07-24T09:37:14.581Z,101336.60
2018-07-24T09:39:42.997Z,101335.13
2018-07-24T09:42:11.334Z,101339.63
2018-07-24T09:44:39.698Z,101338.25
2018-07-24T09:47:08.069Z,101337.79
2018-07-24T09:49:36.424Z,101340.72
2018-07-24T09:52:04.782Z,101342.19
2018-07-24T09:54:33.146Z,101342.60
2018-07-24T09:57:01.548Z,101343.59
2018-07-24T09:59:29.939Z,101347.73
2018-07-24T10:01:58.266Z,101349.38
2018-07-24T10:04:26.643Z,101349.61
2018-07-24T10:06:55.002Z,101355.87
2018-07-24T10:09:24.314Z,101354.89
2018-07-24T10:11:52.688Z,101358.30
2018-07-24T10:14:21.055Z,101358.89
2018-07-24T10:16:49.453Z,101351.32
2018-07-24T10:19:17.814Z,101347.48
2018-07-24T10:21:46.156Z,101355.52
2018-07-24T10:24:14.533Z,101353.81
2018-07-24T10:26:42.895Z,101352.11
2018-07-24T10:29:12.709Z,101353.45
2018-07-24T10:31:41.083Z,101353.80
2018-07-24T10:34:09.446Z,101356.07
2018-07-24T10:36:37.811Z,101358.13
2018-07-24T10:42:06.586Z,101357.55
2018-07-24T10:44:35.006Z,101359.17
2018-07-24T10:47:03.374Z,101357.05
2018-07-24T10:49:31.727Z,101356.17
2018-07-24T10:52:00.090Z,101354.88
2018-07-24T10:54:28.457Z,101356.59
2018-07-24T10:56:56.820Z,101352.75
2018-07-24T10:59:25.549Z,101355.76
2018-07-24T11:01:53.712Z,101351.70
2018-07-24T11:04:22.083Z,101345.50
2018-07-24T11:06:50.439Z,101346.92
2018-07-24T11:09:18.825Z,101350.59
2018-07-24T11:11:47.195Z,101347.24
2018-07-24T11:14:15.554Z,101341.97
2018-07-24T11:16:49.439Z,101346.20
2018-07-24T11:19:18.767Z,101345.07
2018-07-24T11:21:47.506Z,101347.81
2018-07-24T11:24:15.827Z,101347.08
2018-07-24T11:26:44.203Z,101340.94
2018-07-24T11:29:14.176Z,101345.63
2018-07-24T11:31:42.543Z,101346.06
2018-07-24T11:34:11.854Z,101344.44
2018-07-24T11:36:40.250Z,101342.17
2018-07-24T11:39:18.362Z,101344.84
2018-07-24T11:41:40.694Z,101341.67
2018-07-24T11:44:09.126Z,101348.29
2018-07-24T11:46:37.471Z,101342.57
2018-07-24T11:49:07.095Z,101343.67
2018-07-24T11:51:35.520Z,101343.44
2018-07-24T11:54:03.826Z,101337.17
2018-07-24T11:56:32.202Z,101332.68
2018-07-24T11:59:00.611Z,101334.92
2018-07-24T12:01:28.964Z,101335.90
2018-07-24T12:03:57.323Z,101338.51
2018-07-24T12:06:26.784Z,101335.19
2018-07-24T12:08:55.676Z,101334.52
2018-07-24T12:11:24.046Z,101329.34
2018-07-24T12:13:52.470Z,101334.18
2018-07-24T12:16:20.879Z,101333.55
2018-07-24T12:18:49.358Z,101332.92
2018-07-24T12:21:17.735Z,101332.41
2018-07-24T12:23:46.090Z,101331.36
2018-07-24T12:26:14.795Z,101339.11
2018-07-24T12:28:43.164Z,101338.86
2018-07-24T12:31:11.528Z,101336.33
2018-07-24T12:33:47.156Z,101336.00
2018-07-24T12:36:15.575Z,101333.66
2018-07-24T12:38:43.918Z,101335.98
2018-07-24T12:41:12.297Z,101332.55
2018-07-24T12:43:40.988Z,101333.06
2018-07-24T12:46:09.323Z,101331.62
2018-07-24T12:48:38.287Z,101326.27
2018-07-24T12:51:06.695Z,101323.13
2018-07-24T12:53:35.052Z,101324.39
2018-07-24T12:56:03.412Z,101328.80
2018-07-24T12:58:31.776Z,101322.27
2018-07-24T13:01:00.173Z,101326.13
2018-07-24T13:03:28.539Z,101323.55
2018-07-24T13:05:56.907Z,101322.88
2018-07-24T13:08:25.620Z,101326.27
2018-07-24T13:10:54.338Z,101320.09
2018-07-24T13:13:23.012Z,101321.41
2018-07-24T13:15:51.370Z,101322.86
2018-07-24T13:18:19.732Z,101324.52
2018-07-24T13:20:49.065Z,101324.58
2018-07-24T13:23:17.432Z,101319.66
2018-07-24T13:25:45.804Z,101331.53
2018-07-24T13:28:14.155Z,101328.73
2018-07-24T13:30:42.517Z,101328.64
2018-07-24T13:33:10.892Z,101326.06
2018-07-24T13:35:39.250Z,101321.63
2018-07-24T13:38:07.629Z,101321.75
2018-07-24T13:40:36.477Z,101323.98
2018-07-24T13:43:04.853Z,101324.98
2018-07-24T13:45:33.232Z,101322.92
2018-07-24T13:48:01.607Z,101318.55
2018-07-24T13:50:30.955Z,101312.84
2018-07-24T13:52:59.320Z,101317.24
2018-07-24T13:55:28.846Z,101319.94
2018-07-24T13:58:00.876Z,101320.25
2018-07-24T14:00:29.844Z,101315.05
2018-07-24T14:03:02.760Z,101313.55
2018-07-24T14:05:31.823Z,101313.11
2018-07-24T14:08:00.385Z,101309.47
2018-07-24T14:10:28.532Z,101308.63
2018-07-24T14:12:56.922Z,101306.73
2018-07-24T14:15:25.713Z,101312.25
2018-07-24T14:17:54.215Z,101306.84
2018-07-24T14:20:22.580Z,101316.22
2018-07-24T14:22:50.948Z,101312.36
2018-07-24T14:25:19.316Z,101308.05
2018-07-24T14:27:47.741Z,101310.12
2018-07-24T14:30:16.114Z,101304.28
2018-07-24T14:32:44.485Z,101312.78
2018-07-24T14:35:18.557Z,101319.52
2018-07-24T14:37:47.507Z,101307.84
2018-07-24T14:40:15.877Z,101312.50
2018-07-24T14:42:44.236Z,101309.45
2018-07-24T14:45:12.602Z,101312.23
2018-07-24T14:47:40.982Z,101309.26
2018-07-24T14:50:09.986Z,101319.95
2018-07-24T14:52:38.367Z,101313.84
2018-07-24T14:55:06.702Z,101314.87
2018-07-24T14:57:35.079Z,101316.27
2018-07-24T15:00:03.431Z,101314.38
2018-07-24T15:02:31.791Z,101318.63
2018-07-24T15:05:00.261Z,101311.70
2018-07-24T15:07:28.606Z,101322.59
2018-07-24T15:09:57.265Z,101319.27
2018-07-24T15:12:25.633Z,101323.54
2018-07-24T15:14:54.011Z,101319.22
2018-07-24T15:17:22.866Z,101312.02
2018-07-24T15:19:51.221Z,101321.25
2018-07-24T15:22:19.593Z,101316.74
2018-07-24T15:24:47.958Z,101314.30
2018-07-24T15:27:16.314Z,101317.25
2018-07-24T15:29:44.670Z,101316.34
2018-07-24T15:32:13.034Z,101317.19
2018-07-24T15:34:41.442Z,101322.52
2018-07-24T15:37:10.077Z,101326.14
2018-07-24T15:39:38.435Z,101327.27
2018-07-24T15:42:06.798Z,101327.67
2018-07-24T15:44:35.226Z,101325.20
2018-07-24T15:47:03.604Z,101325.15
2018-07-24T15:49:32.441Z,101323.88
2018-07-24T15:52:01.179Z,101326.95
2018-07-24T15:54:29.548Z,101327.83
2018-07-24T15:56:57.922Z,101325.67
2018-07-24T15:59:26.277Z,101327.77
2018-07-24T16:01:54.647Z,101324.84
2018-07-24T16:04:23.004Z,101323.89
2018-07-24T16:06:51.402Z,101323.24
2018-07-24T16:09:19.855Z,101323.69
2018-07-24T16:11:49.562Z,101324.77
2018-07-24T16:14:16.917Z,101322.56
2018-07-24T16:16:45.302Z,101318.77
2018-07-24T16:19:13.661Z,101320.12
2018-07-24T16:21:42.020Z,101321.56
2018-07-24T16:24:10.385Z,101320.42
2018-07-24T16:26:38.779Z,101320.36
2018-07-24T16:29:07.108Z,101321.63
2018-07-24T16:31:35.492Z,101323.18
2018-07-24T16:34:03.869Z,101329.42
2018-07-24T16:36:40.642Z,101326.80
2018-07-24T16:39:09.026Z,101324.29
2018-07-24T16:41:37.404Z,101325.91
2018-07-24T16:44:05.867Z,101324.51
2018-07-24T16:46:34.165Z,101324.34
2018-07-24T16:49:02.527Z,101321.48
2018-07-24T16:51:30.896Z,101319.94
2018-07-24T16:53:59.264Z,101319.72
2018-07-24T16:56:27.644Z,101318.73
2018-07-24T16:58:56.050Z,101321.23
2018-07-24T17:01:24.428Z,101324.11
2018-07-24T17:03:52.974Z,101319.59
2018-07-24T17:06:34.149Z,101323.69
2018-07-24T17:09:08.791Z,101325.01
2018-07-24T17:11:37.161Z,101324.81
2018-07-24T17:14:05.541Z,101317.28
2018-07-24T17:16:33.910Z,101317.69
2018-07-24T17:19:02.287Z,101318.16
2018-07-24T17:21:30.656Z,101323.30
2018-07-24T17:23:59.024Z,101321.59
2018-07-24T17:26:28.728Z,101318.52
2018-07-24T17:28:57.289Z,101320.63
2018-07-24T17:31:25.435Z,101320.56
2018-07-24T17:33:53.811Z,101320.11
2018-07-24T17:36:22.201Z,101322.93
2018-07-24T17:38:50.590Z,101325.70
2018-07-24T17:41:19.019Z,101328.81
2018-07-24T17:43:47.629Z,101333.27
2018-07-24T17:46:28.593Z,101333.27
2018-07-24T17:48:57.852Z,101335.02
2018-07-24T17:51:29.096Z,101334.58
2018-07-24T17:53:57.505Z,101333.65
2018-07-24T17:56:25.863Z,101335.09
2018-07-24T17:58:54.285Z,101332.83
2018-07-24T18:01:22.653Z,101335.44
2018-07-24T18:03:51.021Z,101335.47
2018-07-24T18:06:19.388Z,101338.25
2018-07-24T18:08:47.772Z,101342.33
2018-07-24T18:11:16.191Z,101345.70
2018-07-24T18:13:44.558Z,101346.14
2018-07-24T18:16:18.787Z,101349.81
2018-07-24T18:18:52.360Z,101344.14
2018-07-24T18:21:20.783Z,101346.59
2018-07-24T18:23:49.095Z,101347.97
2018-07-24T18:26:17.477Z,101353.05
2018-07-24T18:28:45.850Z,101353.05
2018-07-24T18:31:14.210Z,101351.27
2018-07-24T18:33:42.612Z,101350.36
2018-07-24T18:36:10.972Z,101347.76
2018-07-24T18:38:39.404Z,101345.63
2018-07-24T18:41:18.233Z,101350.05
2018-07-24T18:43:46.647Z,101344.72
2018-07-24T18:46:16.041Z,101346.11
2018-07-24T18:48:44.416Z,101351.08
2018-07-24T18:51:16.245Z,101356.28
2018-07-24T18:53:44.651Z,101357.92
2018-07-24T18:56:13.012Z,101361.42
2018-07-24T18:58:41.437Z,101360.67
2018-07-24T19:01:10.904Z,101366.39
2018-07-24T19:03:39.251Z,101369.23
2018-07-24T19:06:07.613Z,101365.23
2018-07-24T19:08:35.968Z,101362.45
2018-07-24T19:11:04.378Z,101367.80
2018-07-24T19:13:33.626Z,101368.04
2018-07-24T19:16:02.033Z,101368.19
2018-07-24T19:18:33.498Z,101365.30
2018-07-24T19:20:59.324Z,101368.38
2018-07-24T19:23:27.483Z,101369.16
2018-07-24T19:25:55.840Z,101368.80
2018-07-24T19:28:24.203Z,101367.88
2018-07-24T19:30:52.631Z,101368.81
2018-07-24T19:33:20.943Z,101371.61
2018-07-24T19:35:49.311Z,101374.80
2018-07-24T19:38:18.421Z,101376.58
2018-07-24T19:40:50.031Z,101370.53
2018-07-24T19:43:18.414Z,101371.04
2018-07-24T19:45:46.805Z,101369.20
2018-07-24T19:48:15.185Z,101367.28
2018-07-24T19:50:43.557Z,101364.25
2018-07-24T19:53:11.903Z,101368.63
2018-07-24T19:55:40.319Z,101372.84
2018-07-24T19:58:08.666Z,101371.53
2018-07-24T20:00:37.273Z,101372.16
2018-07-24T20:03:05.461Z,101370.27
2018-07-24T20:05:34.835Z,101370.75
2018-07-24T20:08:04.587Z,101374.55
2018-07-24T20:10:46.631Z,101372.59
2018-07-24T20:13:15.048Z,101373.00
2018-07-24T20:15:43.481Z,101375.27
2018-07-24T20:18:11.857Z,101375.25
2018-07-24T20:20:41.119Z,101380.95
2018-07-24T20:23:09.945Z,101382.67
2018-07-24T20:25:49.075Z,101382.22
2018-07-24T20:28:17.518Z,101383.21
2018-07-24T20:30:45.910Z,101383.83
2018-07-24T20:33:14.275Z,101382.86
2018-07-24T20:35:42.683Z,101385.02
2018-07-24T20:38:11.057Z,101383.13
2018-07-24T20:40:39.670Z,101382.39
2018-07-24T20:43:08.049Z,101383.27
2018-07-24T20:45:36.407Z,101388.18
2018-07-24T20:48:04.801Z,101384.96
2018-07-24T20:50:33.174Z,101391.27
2018-07-24T20:53:01.552Z,101396.08
2018-07-24T20:55:29.946Z,101387.97
2018-07-24T20:57:58.315Z,101388.03
2018-07-24T21:00:26.716Z,101394.31
2018-07-24T21:02:55.048Z,101398.74
2018-07-24T21:05:27.050Z,101394.66
2018-07-24T21:07:55.447Z,101393.37
2018-07-24T21:10:23.821Z,101393.00
2018-07-24T21:15:51.663Z,101397.44
2018-07-24T21:18:24.802Z,101397.62
2018-07-24T21:23:26.566Z,101396.78
2018-07-24T21:25:55.004Z,101401.60
2018-07-24T21:28:23.392Z,101400.08
2018-07-24T21:30:51.825Z,101399.66
2018-07-24T21:33:20.354Z,101399.19
2018-07-24T21:35:55.236Z,101401.34
2018-07-24T21:38:23.382Z,101404.98
2018-07-24T21:40:51.989Z,101402.95
2018-07-24T21:43:20.281Z,101405.39
2018-07-24T21:45:48.679Z,101400.93
2018-07-24T21:48:17.207Z,101395.55
2018-07-24T21:50:45.659Z,101396.53
2018-07-24T21:53:20.168Z,101395.02
2018-07-24T21:55:48.559Z,101393.73
2018-07-24T21:58:16.944Z,101392.23
2018-07-24T22:00:45.373Z,101394.58
2018-07-24T22:03:13.683Z,101390.55
2018-07-24T22:05:42.061Z,101389.00
2018-07-24T22:08:10.438Z,101391.47
2018-07-24T22:10:46.643Z,101389.31
2018-07-24T22:13:15.014Z,101390.68
2018-07-24T22:15:43.399Z,101388.91
2018-07-24T22:18:11.797Z,101386.54
2018-07-24T22:20:40.138Z,101382.50
2018-07-24T22:23:08.875Z,101389.11
2018-07-24T22:25:37.474Z,101388.84
2018-07-24T22:28:06.514Z,101386.79
2018-07-24T22:30:34.921Z,101388.48
2018-07-24T22:33:03.279Z,101387.31
2018-07-24T22:35:31.685Z,101387.59
2018-07-24T22:38:00.282Z,101384.82
2018-07-24T22:40:28.673Z,101386.52
2018-07-24T22:42:57.055Z,101386.43
2018-07-24T22:45:25.436Z,101385.72
2018-07-24T22:47:54.681Z,101383.67
2018-07-24T22:50:23.258Z,101383.63
2018-07-24T22:52:51.413Z,101384.97
2018-07-24T22:55:19.807Z,101388.27
2018-07-24T22:57:48.224Z,101387.88
2018-07-24T23:00:16.617Z,101387.23
2018-07-24T23:02:45.006Z,101386.35
2018-07-24T23:05:17.793Z,101381.88
2018-07-24T23:07:47.024Z,101382.67
2018-07-24T23:10:15.396Z,101382.99
2018-07-24T23:12:43.942Z,101384.66
2018-07-24T23:15:15.287Z,101386.31
2018-07-24T23:17:42.999Z,101382.56
2018-07-24T23:20:13.236Z,101376.67
2018-07-24T23:22:41.611Z,101371.97
2018-07-24T23:25:09.986Z,101370.95
2018-07-24T23:27:38.364Z,101369.14
2018-07-24T23:30:06.718Z,101369.50
2018-07-24T23:32:35.081Z,101369.95
2018-07-24T23:35:03.466Z,101369.50
2018-07-24T23:37:31.834Z,101374.21
2018-07-24T23:40:00.224Z,101376.23
2018-07-24T23:42:28.598Z,101376.50
2018-07-24T23:44:56.972Z,101372.11
2018-07-24T23:47:25.354Z,101367.17
2018-07-24T23:49:53.755Z,101364.73
2018-07-24T23:52:22.100Z,101367.92
2018-07-24T23:54:50.477Z,101364.12
2018-07-24T23:57:18.824Z,101364.97
2018-07-24T23:59:47.203Z,101368.17
